sensor_id;sensor_type;location;lat;lon;timestamp;P1;durP1;ratioP1;P2;durP2;ratioP2
16310;SDS011;8264;48.510;8.872;2022-08-21T00:01:07;3.03;;;2.13;;
16310;SDS011;8264;48.510;8.872;2022-08-21T00:03:36;2.20;;;2.00;;
16310;SDS011;8264;48.510;8.872;2022-08-21T00:06:02;2.47;;;2.20;;
16310;SDS011;8264;48.510;8.872;2022-08-21T00:08:29;2.27;;;2.10;;
16310;SDS011;8264;48.510;8.872;2022-08-21T00:10:55;4.83;;;2.60;;
16310;SDS011;8264;48.510;8.872;2022-08-21T00:13:22;3.60;;;2.13;;
16310;SDS011;8264;48.510;8.872;2022-08-21T00:15:50;2.67;;;2.10;;
16310;SDS011;8264;48.510;8.872;2022-08-21T00:18:17;2.50;;;2.07;;
16310;SDS011;8264;48.510;8.872;2022-08-21T00:20:44;3.03;;;2.33;;
16310;SDS011;8264;48.510;8.872;2022-08-21T00:23:12;2.77;;;2.00;;
16310;SDS011;8264;48.510;8.872;2022-08-21T00:25:39;2.20;;;1.87;;
16310;SDS011;8264;48.510;8.872;2022-08-21T00:28:06;3.90;;;2.30;;
16310;SDS011;8264;48.510;8.872;2022-08-21T00:30:33;2.97;;;2.33;;
16310;SDS011;8264;48.510;8.872;2022-08-21T00:33:01;2.43;;;2.23;;
16310;SDS011;8264;48.510;8.872;2022-08-21T00:35:28;4.70;;;2.80;;
16310;SDS011;8264;48.510;8.872;2022-08-21T00:37:57;2.17;;;1.90;;
16310;SDS011;8264;48.510;8.872;2022-08-21T00:40:26;2.90;;;2.60;;
16310;SDS011;8264;48.510;8.872;2022-08-21T00:42:56;4.23;;;2.27;;
16310;SDS011;8264;48.510;8.872;2022-08-21T00:45:23;3.33;;;2.50;;
16310;SDS011;8264;48.510;8.872;2022-08-21T00:47:50;2.27;;;2.07;;
16310;SDS011;8264;48.510;8.872;2022-08-21T00:50:20;4.33;;;2.13;;
16310;SDS011;8264;48.510;8.872;2022-08-21T00:52:47;2.60;;;2.40;;
16310;SDS011;8264;48.510;8.872;2022-08-21T00:55:14;2.53;;;2.10;;
16310;SDS011;8264;48.510;8.872;2022-08-21T00:57:42;2.90;;;2.63;;
16310;SDS011;8264;48.510;8.872;2022-08-21T01:00:13;2.47;;;2.13;;
16310;SDS011;8264;48.510;8.872;2022-08-21T01:02:41;4.00;;;2.60;;
16310;SDS011;8264;48.510;8.872;2022-08-21T01:05:08;3.67;;;2.80;;
16310;SDS011;8264;48.510;8.872;2022-08-21T01:07:37;2.73;;;2.53;;
16310;SDS011;8264;48.510;8.872;2022-08-21T01:10:04;3.13;;;2.70;;
16310;SDS011;8264;48.510;8.872;2022-08-21T01:12:31;2.93;;;2.37;;
16310;SDS011;8264;48.510;8.872;2022-08-21T01:14:58;3.37;;;3.07;;
16310;SDS011;8264;48.510;8.872;2022-08-21T01:17:26;6.47;;;3.03;;
16310;SDS011;8264;48.510;8.872;2022-08-21T01:19:53;2.83;;;2.53;;
16310;SDS011;8264;48.510;8.872;2022-08-21T01:22:24;4.63;;;2.83;;
16310;SDS011;8264;48.510;8.872;2022-08-21T01:24:51;5.63;;;2.83;;
16310;SDS011;8264;48.510;8.872;2022-08-21T01:27:17;3.17;;;2.70;;
16310;SDS011;8264;48.510;8.872;2022-08-21T01:29:45;3.50;;;2.30;;
16310;SDS011;8264;48.510;8.872;2022-08-21T01:32:15;3.80;;;3.00;;
16310;SDS011;8264;48.510;8.872;2022-08-21T01:34:44;4.03;;;2.67;;
16310;SDS011;8264;48.510;8.872;2022-08-21T01:37:12;2.80;;;2.60;;
16310;SDS011;8264;48.510;8.872;2022-08-21T01:39:40;2.90;;;2.60;;
16310;SDS011;8264;48.510;8.872;2022-08-21T01:42:07;4.77;;;2.70;;
16310;SDS011;8264;48.510;8.872;2022-08-21T01:44:34;3.10;;;2.33;;
16310;SDS011;8264;48.510;8.872;2022-08-21T01:47:02;5.87;;;2.80;;
16310;SDS011;8264;48.510;8.872;2022-08-21T01:49:29;2.53;;;2.30;;
16310;SDS011;8264;48.510;8.872;2022-08-21T01:51:56;2.93;;;2.13;;
16310;SDS011;8264;48.510;8.872;2022-08-21T01:54:22;3.00;;;2.60;;
16310;SDS011;8264;48.510;8.872;2022-08-21T01:56:51;3.50;;;2.60;;
16310;SDS011;8264;48.510;8.872;2022-08-21T01:59:18;2.70;;;2.50;;
16310;SDS011;8264;48.510;8.872;2022-08-21T02:01:45;4.20;;;2.70;;
16310;SDS011;8264;48.510;8.872;2022-08-21T02:04:12;4.67;;;3.30;;
16310;SDS011;8264;48.510;8.872;2022-08-21T02:06:38;4.67;;;3.50;;
16310;SDS011;8264;48.510;8.872;2022-08-21T02:09:06;3.83;;;2.70;;
16310;SDS011;8264;48.510;8.872;2022-08-21T02:11:34;3.60;;;2.80;;
16310;SDS011;8264;48.510;8.872;2022-08-21T02:14:02;3.67;;;3.07;;
16310;SDS011;8264;48.510;8.872;2022-08-21T02:16:29;2.77;;;2.50;;
16310;SDS011;8264;48.510;8.872;2022-08-21T02:18:56;2.57;;;2.37;;
16310;SDS011;8264;48.510;8.872;2022-08-21T02:21:22;3.13;;;2.60;;
16310;SDS011;8264;48.510;8.872;2022-08-21T02:23:48;3.00;;;2.80;;
16310;SDS011;8264;48.510;8.872;2022-08-21T02:26:15;3.13;;;2.67;;
16310;SDS011;8264;48.510;8.872;2022-08-21T02:28:41;2.50;;;2.30;;
16310;SDS011;8264;48.510;8.872;2022-08-21T02:31:09;3.97;;;2.60;;
16310;SDS011;8264;48.510;8.872;2022-08-21T02:33:36;3.53;;;2.83;;
16310;SDS011;8264;48.510;8.872;2022-08-21T02:36:04;5.37;;;2.70;;
16310;SDS011;8264;48.510;8.872;2022-08-21T02:38:32;3.77;;;2.73;;
16310;SDS011;8264;48.510;8.872;2022-08-21T02:41:03;3.43;;;2.50;;
16310;SDS011;8264;48.510;8.872;2022-08-21T02:43:30;3.30;;;2.80;;
16310;SDS011;8264;48.510;8.872;2022-08-21T02:45:57;6.43;;;2.90;;
16310;SDS011;8264;48.510;8.872;2022-08-21T02:48:26;4.63;;;2.20;;
16310;SDS011;8264;48.510;8.872;2022-08-21T02:50:55;3.90;;;2.30;;
16310;SDS011;8264;48.510;8.872;2022-08-21T02:53:23;2.77;;;2.57;;
16310;SDS011;8264;48.510;8.872;2022-08-21T02:55:50;3.03;;;2.50;;
16310;SDS011;8264;48.510;8.872;2022-08-21T02:58:19;2.50;;;2.30;;
16310;SDS011;8264;48.510;8.872;2022-08-21T03:00:47;4.17;;;2.30;;
16310;SDS011;8264;48.510;8.872;2022-08-21T03:03:14;2.87;;;2.37;;
16310;SDS011;8264;48.510;8.872;2022-08-21T03:05:42;3.77;;;2.93;;
16310;SDS011;8264;48.510;8.872;2022-08-21T03:08:10;4.17;;;2.70;;
16310;SDS011;8264;48.510;8.872;2022-08-21T03:10:39;3.33;;;2.43;;
16310;SDS011;8264;48.510;8.872;2022-08-21T03:13:07;2.70;;;2.50;;
16310;SDS011;8264;48.510;8.872;2022-08-21T03:15:34;2.60;;;2.40;;
16310;SDS011;8264;48.510;8.872;2022-08-21T03:18:01;3.20;;;2.30;;
16310;SDS011;8264;48.510;8.872;2022-08-21T03:20:28;5.37;;;3.27;;
16310;SDS011;8264;48.510;8.872;2022-08-21T03:22:58;3.00;;;2.70;;
16310;SDS011;8264;48.510;8.872;2022-08-21T03:25:26;2.57;;;2.37;;
16310;SDS011;8264;48.510;8.872;2022-08-21T03:27:53;3.07;;;2.60;;
16310;SDS011;8264;48.510;8.872;2022-08-21T03:30:20;3.37;;;3.07;;
16310;SDS011;8264;48.510;8.872;2022-08-21T03:32:47;3.10;;;2.80;;
16310;SDS011;8264;48.510;8.872;2022-08-21T03:35:14;3.47;;;2.73;;
16310;SDS011;8264;48.510;8.872;2022-08-21T03:37:40;3.87;;;2.60;;
16310;SDS011;8264;48.510;8.872;2022-08-21T03:40:09;4.00;;;2.70;;
16310;SDS011;8264;48.510;8.872;2022-08-21T03:42:42;3.17;;;2.63;;
16310;SDS011;8264;48.510;8.872;2022-08-21T03:45:12;3.27;;;2.67;;
16310;SDS011;8264;48.510;8.872;2022-08-21T03:47:49;4.80;;;2.90;;
16310;SDS011;8264;48.510;8.872;2022-08-21T03:50:16;3.03;;;2.43;;
16310;SDS011;8264;48.510;8.872;2022-08-21T03:52:43;2.97;;;2.40;;
16310;SDS011;8264;48.510;8.872;2022-08-21T03:55:11;2.93;;;2.40;;
16310;SDS011;8264;48.510;8.872;2022-08-21T03:57:37;2.70;;;2.50;;
16310;SDS011;8264;48.510;8.872;2022-08-21T04:00:04;2.93;;;2.63;;
16310;SDS011;8264;48.510;8.872;2022-08-21T04:02:33;3.63;;;2.67;;
16310;SDS011;8264;48.510;8.872;2022-08-21T04:05:00;2.87;;;2.07;;
16310;SDS011;8264;48.510;8.872;2022-08-21T04:07:27;4.20;;;2.50;;
16310;SDS011;8264;48.510;8.872;2022-08-21T04:09:53;3.60;;;2.30;;
16310;SDS011;8264;48.510;8.872;2022-08-21T04:12:21;3.67;;;2.30;;
16310;SDS011;8264;48.510;8.872;2022-08-21T04:14:48;4.17;;;2.60;;
16310;SDS011;8264;48.510;8.872;2022-08-21T04:17:16;3.03;;;2.57;;
16310;SDS011;8264;48.510;8.872;2022-08-21T04:19:42;3.00;;;2.60;;
16310;SDS011;8264;48.510;8.872;2022-08-21T04:22:09;3.90;;;2.67;;
16310;SDS011;8264;48.510;8.872;2022-08-21T04:24:35;4.00;;;2.70;;
16310;SDS011;8264;48.510;8.872;2022-08-21T04:27:02;3.13;;;2.63;;
16310;SDS011;8264;48.510;8.872;2022-08-21T04:29:30;3.20;;;2.70;;
16310;SDS011;8264;48.510;8.872;2022-08-21T04:31:57;2.80;;;2.10;;
16310;SDS011;8264;48.510;8.872;2022-08-21T04:34:23;4.90;;;2.80;;
16310;SDS011;8264;48.510;8.872;2022-08-21T04:36:50;4.77;;;3.10;;
16310;SDS011;8264;48.510;8.872;2022-08-21T04:39:16;3.50;;;2.47;;
16310;SDS011;8264;48.510;8.872;2022-08-21T04:41:42;3.30;;;2.97;;
16310;SDS011;8264;48.510;8.872;2022-08-21T04:44:09;5.10;;;2.80;;
16310;SDS011;8264;48.510;8.872;2022-08-21T04:46:37;3.70;;;2.40;;
16310;SDS011;8264;48.510;8.872;2022-08-21T04:49:03;3.30;;;3.00;;
16310;SDS011;8264;48.510;8.872;2022-08-21T04:51:30;5.07;;;2.80;;
16310;SDS011;8264;48.510;8.872;2022-08-21T04:53:59;5.60;;;2.60;;
16310;SDS011;8264;48.510;8.872;2022-08-21T04:56:29;3.93;;;2.90;;
16310;SDS011;8264;48.510;8.872;2022-08-21T04:58:58;3.47;;;2.57;;
16310;SDS011;8264;48.510;8.872;2022-08-21T05:01:28;7.90;;;3.20;;
16310;SDS011;8264;48.510;8.872;2022-08-21T05:03:57;3.67;;;2.30;;
16310;SDS011;8264;48.510;8.872;2022-08-21T05:06:26;7.57;;;2.83;;
16310;SDS011;8264;48.510;8.872;2022-08-21T05:08:55;3.63;;;3.00;;
16310;SDS011;8264;48.510;8.872;2022-08-21T05:11:22;3.93;;;2.90;;
16310;SDS011;8264;48.510;8.872;2022-08-21T05:13:48;4.63;;;3.40;;
16310;SDS011;8264;48.510;8.872;2022-08-21T05:16:15;4.07;;;2.93;;
16310;SDS011;8264;48.510;8.872;2022-08-21T05:18:42;3.70;;;2.97;;
16310;SDS011;8264;48.510;8.872;2022-08-21T05:21:10;6.53;;;3.70;;
16310;SDS011;8264;48.510;8.872;2022-08-21T05:23:37;3.93;;;3.37;;
16310;SDS011;8264;48.510;8.872;2022-08-21T05:26:03;4.37;;;3.23;;
16310;SDS011;8264;48.510;8.872;2022-08-21T05:28:30;4.77;;;3.17;;
16310;SDS011;8264;48.510;8.872;2022-08-21T05:30:57;6.73;;;3.40;;
16310;SDS011;8264;48.510;8.872;2022-08-21T05:33:23;4.70;;;3.50;;
16310;SDS011;8264;48.510;8.872;2022-08-21T05:35:50;7.07;;;4.00;;
16310;SDS011;8264;48.510;8.872;2022-08-21T05:38:18;6.20;;;3.87;;
16310;SDS011;8264;48.510;8.872;2022-08-21T05:40:45;3.93;;;3.23;;
16310;SDS011;8264;48.510;8.872;2022-08-21T05:43:12;5.20;;;3.40;;
16310;SDS011;8264;48.510;8.872;2022-08-21T05:45:39;4.73;;;3.80;;
16310;SDS011;8264;48.510;8.872;2022-08-21T05:48:06;5.30;;;3.30;;
16310;SDS011;8264;48.510;8.872;2022-08-21T05:50:33;4.33;;;3.63;;
16310;SDS011;8264;48.510;8.872;2022-08-21T05:53:00;7.27;;;3.27;;
16310;SDS011;8264;48.510;8.872;2022-08-21T05:55:28;5.03;;;3.43;;
16310;SDS011;8264;48.510;8.872;2022-08-21T05:57:54;4.93;;;3.00;;
16310;SDS011;8264;48.510;8.872;2022-08-21T06:00:21;4.87;;;3.10;;
16310;SDS011;8264;48.510;8.872;2022-08-21T06:02:48;3.60;;;2.97;;
16310;SDS011;8264;48.510;8.872;2022-08-21T06:05:15;6.87;;;3.17;;
16310;SDS011;8264;48.510;8.872;2022-08-21T06:07:41;4.27;;;2.80;;
16310;SDS011;8264;48.510;8.872;2022-08-21T06:10:08;3.97;;;2.93;;
16310;SDS011;8264;48.510;8.872;2022-08-21T06:12:36;5.73;;;2.80;;
16310;SDS011;8264;48.510;8.872;2022-08-21T06:15:03;5.67;;;3.00;;
16310;SDS011;8264;48.510;8.872;2022-08-21T06:17:30;2.93;;;2.67;;
16310;SDS011;8264;48.510;8.872;2022-08-21T06:19:57;8.27;;;3.10;;
16310;SDS011;8264;48.510;8.872;2022-08-21T06:22:23;2.70;;;2.50;;
16310;SDS011;8264;48.510;8.872;2022-08-21T06:24:50;10.27;;;3.10;;
16310;SDS011;8264;48.510;8.872;2022-08-21T06:27:16;4.43;;;2.80;;
16310;SDS011;8264;48.510;8.872;2022-08-21T06:29:44;5.57;;;2.70;;
16310;SDS011;8264;48.510;8.872;2022-08-21T06:32:11;4.23;;;2.37;;
16310;SDS011;8264;48.510;8.872;2022-08-21T06:34:38;4.47;;;2.80;;
16310;SDS011;8264;48.510;8.872;2022-08-21T06:37:06;5.67;;;2.80;;
16310;SDS011;8264;48.510;8.872;2022-08-21T06:39:33;5.47;;;2.63;;
16310;SDS011;8264;48.510;8.872;2022-08-21T06:41:59;5.10;;;2.80;;
16310;SDS011;8264;48.510;8.872;2022-08-21T06:44:26;4.33;;;2.60;;
16310;SDS011;8264;48.510;8.872;2022-08-21T06:46:54;4.70;;;2.50;;
16310;SDS011;8264;48.510;8.872;2022-08-21T06:49:20;6.17;;;2.80;;
16310;SDS011;8264;48.510;8.872;2022-08-21T06:51:47;4.10;;;2.47;;
16310;SDS011;8264;48.510;8.872;2022-08-21T06:54:13;3.40;;;2.57;;
16310;SDS011;8264;48.510;8.872;2022-08-21T06:56:40;4.13;;;2.30;;
16310;SDS011;8264;48.510;8.872;2022-08-21T06:59:06;4.73;;;2.63;;
16310;SDS011;8264;48.510;8.872;2022-08-21T07:01:33;4.57;;;2.70;;
16310;SDS011;8264;48.510;8.872;2022-08-21T07:04:01;7.07;;;3.30;;
16310;SDS011;8264;48.510;8.872;2022-08-21T07:06:27;5.00;;;2.73;;
16310;SDS011;8264;48.510;8.872;2022-08-21T07:08:54;3.07;;;2.67;;
16310;SDS011;8264;48.510;8.872;2022-08-21T07:11:21;3.17;;;2.80;;
16310;SDS011;8264;48.510;8.872;2022-08-21T07:13:49;3.90;;;2.57;;
16310;SDS011;8264;48.510;8.872;2022-08-21T07:16:17;28.33;;;3.57;;
16310;SDS011;8264;48.510;8.872;2022-08-21T07:18:44;6.07;;;2.80;;
16310;SDS011;8264;48.510;8.872;2022-08-21T07:21:13;7.43;;;2.80;;
16310;SDS011;8264;48.510;8.872;2022-08-21T07:23:42;3.93;;;2.80;;
16310;SDS011;8264;48.510;8.872;2022-08-21T07:26:10;3.77;;;2.43;;
16310;SDS011;8264;48.510;8.872;2022-08-21T07:28:37;3.57;;;2.27;;
16310;SDS011;8264;48.510;8.872;2022-08-21T07:31:04;4.33;;;2.37;;
16310;SDS011;8264;48.510;8.872;2022-08-21T07:33:32;4.03;;;2.50;;
16310;SDS011;8264;48.510;8.872;2022-08-21T07:35:59;4.83;;;2.70;;
16310;SDS011;8264;48.510;8.872;2022-08-21T07:38:27;3.67;;;2.97;;
16310;SDS011;8264;48.510;8.872;2022-08-21T07:40:54;5.03;;;2.60;;
16310;SDS011;8264;48.510;8.872;2022-08-21T07:43:23;5.13;;;2.63;;
16310;SDS011;8264;48.510;8.872;2022-08-21T07:45:50;7.83;;;2.73;;
16310;SDS011;8264;48.510;8.872;2022-08-21T07:48:18;6.53;;;2.63;;
16310;SDS011;8264;48.510;8.872;2022-08-21T07:50:44;4.03;;;2.10;;
16310;SDS011;8264;48.510;8.872;2022-08-21T07:53:11;4.93;;;2.73;;
16310;SDS011;8264;48.510;8.872;2022-08-21T07:55:39;5.97;;;2.53;;
16310;SDS011;8264;48.510;8.872;2022-08-21T07:58:05;4.73;;;2.70;;
16310;SDS011;8264;48.510;8.872;2022-08-21T08:00:32;4.23;;;2.50;;
16310;SDS011;8264;48.510;8.872;2022-08-21T08:02:59;4.63;;;2.73;;
16310;SDS011;8264;48.510;8.872;2022-08-21T08:05:26;4.00;;;2.57;;
16310;SDS011;8264;48.510;8.872;2022-08-21T08:07:54;5.23;;;3.00;;
16310;SDS011;8264;48.510;8.872;2022-08-21T08:10:21;5.77;;;2.60;;
16310;SDS011;8264;48.510;8.872;2022-08-21T08:12:50;3.87;;;2.50;;
16310;SDS011;8264;48.510;8.872;2022-08-21T08:15:20;4.63;;;2.67;;
16310;SDS011;8264;48.510;8.872;2022-08-21T08:17:48;5.67;;;3.00;;
16310;SDS011;8264;48.510;8.872;2022-08-21T08:20:15;5.90;;;3.30;;
16310;SDS011;8264;48.510;8.872;2022-08-21T08:22:43;6.40;;;2.67;;
16310;SDS011;8264;48.510;8.872;2022-08-21T08:25:10;5.77;;;2.63;;
16310;SDS011;8264;48.510;8.872;2022-08-21T08:27:38;4.63;;;2.60;;
16310;SDS011;8264;48.510;8.872;2022-08-21T08:30:07;5.17;;;2.53;;
16310;SDS011;8264;48.510;8.872;2022-08-21T08:32:35;6.43;;;2.60;;
16310;SDS011;8264;48.510;8.872;2022-08-21T08:35:02;4.77;;;3.00;;
16310;SDS011;8264;48.510;8.872;2022-08-21T08:37:29;4.03;;;2.60;;
16310;SDS011;8264;48.510;8.872;2022-08-21T08:39:56;6.40;;;3.10;;
16310;SDS011;8264;48.510;8.872;2022-08-21T08:42:24;4.77;;;2.60;;
16310;SDS011;8264;48.510;8.872;2022-08-21T08:44:56;5.43;;;2.60;;
16310;SDS011;8264;48.510;8.872;2022-08-21T08:47:26;6.40;;;3.10;;
16310;SDS011;8264;48.510;8.872;2022-08-21T08:49:55;5.47;;;2.80;;
16310;SDS011;8264;48.510;8.872;2022-08-21T08:52:26;5.70;;;2.80;;
16310;SDS011;8264;48.510;8.872;2022-08-21T08:54:57;6.93;;;2.73;;
16310;SDS011;8264;48.510;8.872;2022-08-21T08:57:28;5.73;;;2.73;;
16310;SDS011;8264;48.510;8.872;2022-08-21T08:59:56;3.27;;;2.30;;
16310;SDS011;8264;48.510;8.872;2022-08-21T09:02:26;5.10;;;2.60;;
16310;SDS011;8264;48.510;8.872;2022-08-21T09:04:54;5.40;;;3.13;;
16310;SDS011;8264;48.510;8.872;2022-08-21T09:07:23;5.13;;;2.70;;
16310;SDS011;8264;48.510;8.872;2022-08-21T09:09:59;5.73;;;2.57;;
16310;SDS011;8264;48.510;8.872;2022-08-21T09:12:33;7.97;;;3.00;;
16310;SDS011;8264;48.510;8.872;2022-08-21T09:15:12;6.37;;;2.97;;
16310;SDS011;8264;48.510;8.872;2022-08-21T09:17:52;4.97;;;2.67;;
16310;SDS011;8264;48.510;8.872;2022-08-21T09:20:29;5.97;;;2.47;;
16310;SDS011;8264;48.510;8.872;2022-08-21T09:23:05;4.67;;;2.63;;
16310;SDS011;8264;48.510;8.872;2022-08-21T09:25:39;5.00;;;2.70;;
16310;SDS011;8264;48.510;8.872;2022-08-21T09:28:09;4.87;;;2.67;;
16310;SDS011;8264;48.510;8.872;2022-08-21T09:30:39;5.73;;;2.50;;
16310;SDS011;8264;48.510;8.872;2022-08-21T09:33:08;5.87;;;2.20;;
16310;SDS011;8264;48.510;8.872;2022-08-21T09:35:35;11.87;;;3.30;;
16310;SDS011;8264;48.510;8.872;2022-08-21T09:38:03;7.87;;;2.53;;
16310;SDS011;8264;48.510;8.872;2022-08-21T09:40:33;5.47;;;2.73;;
16310;SDS011;8264;48.510;8.872;2022-08-21T09:43:16;6.00;;;2.90;;
16310;SDS011;8264;48.510;8.872;2022-08-21T09:45:44;8.07;;;2.60;;
16310;SDS011;8264;48.510;8.872;2022-08-21T09:48:14;6.43;;;2.80;;
16310;SDS011;8264;48.510;8.872;2022-08-21T09:50:41;6.60;;;2.57;;
16310;SDS011;8264;48.510;8.872;2022-08-21T09:53:15;5.27;;;3.07;;
16310;SDS011;8264;48.510;8.872;2022-08-21T09:55:47;5.80;;;2.70;;
16310;SDS011;8264;48.510;8.872;2022-08-21T09:58:33;6.17;;;2.57;;
16310;SDS011;8264;48.510;8.872;2022-08-21T10:01:04;7.50;;;3.07;;
16310;SDS011;8264;48.510;8.872;2022-08-21T10:03:33;7.80;;;2.43;;
16310;SDS011;8264;48.510;8.872;2022-08-21T10:06:00;8.23;;;2.80;;
16310;SDS011;8264;48.510;8.872;2022-08-21T10:08:30;4.70;;;2.43;;
16310;SDS011;8264;48.510;8.872;2022-08-21T10:11:02;6.00;;;2.93;;
16310;SDS011;8264;48.510;8.872;2022-08-21T10:13:33;5.67;;;2.63;;
16310;SDS011;8264;48.510;8.872;2022-08-21T10:16:10;4.60;;;2.30;;
16310;SDS011;8264;48.510;8.872;2022-08-21T10:18:44;6.93;;;2.77;;
16310;SDS011;8264;48.510;8.872;2022-08-21T10:21:16;6.90;;;2.53;;
16310;SDS011;8264;48.510;8.872;2022-08-21T10:23:51;4.10;;;2.30;;
16310;SDS011;8264;48.510;8.872;2022-08-21T10:26:25;7.27;;;2.47;;
16310;SDS011;8264;48.510;8.872;2022-08-21T10:29:00;5.83;;;2.60;;
16310;SDS011;8264;48.510;8.872;2022-08-21T10:31:31;4.87;;;2.40;;
16310;SDS011;8264;48.510;8.872;2022-08-21T10:34:06;4.57;;;2.57;;
16310;SDS011;8264;48.510;8.872;2022-08-21T10:36:47;8.50;;;2.47;;
16310;SDS011;8264;48.510;8.872;2022-08-21T10:39:19;5.37;;;1.97;;
16310;SDS011;8264;48.510;8.872;2022-08-21T10:41:53;2.40;;;1.80;;
16310;SDS011;8264;48.510;8.872;2022-08-21T10:44:34;3.90;;;2.20;;
16310;SDS011;8264;48.510;8.872;2022-08-21T10:47:08;4.00;;;2.10;;
16310;SDS011;8264;48.510;8.872;2022-08-21T10:49:42;4.97;;;2.33;;
16310;SDS011;8264;48.510;8.872;2022-08-21T10:52:19;7.00;;;2.67;;
16310;SDS011;8264;48.510;8.872;2022-08-21T10:54:57;4.27;;;2.90;;
16310;SDS011;8264;48.510;8.872;2022-08-21T10:57:30;3.43;;;2.30;;
16310;SDS011;8264;48.510;8.872;2022-08-21T11:00:04;4.17;;;2.27;;
16310;SDS011;8264;48.510;8.872;2022-08-21T11:02:35;4.17;;;2.20;;
16310;SDS011;8264;48.510;8.872;2022-08-21T11:05:08;6.13;;;2.37;;
16310;SDS011;8264;48.510;8.872;2022-08-21T11:07:39;5.20;;;2.40;;
16310;SDS011;8264;48.510;8.872;2022-08-21T11:10:13;5.57;;;2.07;;
16310;SDS011;8264;48.510;8.872;2022-08-21T11:12:43;3.10;;;2.17;;
16310;SDS011;8264;48.510;8.872;2022-08-21T11:15:17;3.87;;;1.90;;
16310;SDS011;8264;48.510;8.872;2022-08-21T11:17:52;4.87;;;2.50;;
16310;SDS011;8264;48.510;8.872;2022-08-21T11:20:26;3.63;;;2.00;;
16310;SDS011;8264;48.510;8.872;2022-08-21T11:22:56;3.63;;;1.93;;
16310;SDS011;8264;48.510;8.872;2022-08-21T11:25:26;3.97;;;2.17;;
16310;SDS011;8264;48.510;8.872;2022-08-21T11:27:54;4.40;;;2.30;;
16310;SDS011;8264;48.510;8.872;2022-08-21T11:30:23;6.33;;;2.40;;
16310;SDS011;8264;48.510;8.872;2022-08-21T11:32:57;5.63;;;2.13;;
16310;SDS011;8264;48.510;8.872;2022-08-21T11:35:33;4.20;;;2.20;;
16310;SDS011;8264;48.510;8.872;2022-08-21T11:38:08;3.63;;;1.93;;
16310;SDS011;8264;48.510;8.872;2022-08-21T11:40:46;4.93;;;2.20;;
16310;SDS011;8264;48.510;8.872;2022-08-21T11:43:19;3.97;;;1.97;;
16310;SDS011;8264;48.510;8.872;2022-08-21T11:45:50;5.53;;;2.00;;
16310;SDS011;8264;48.510;8.872;2022-08-21T11:48:23;3.97;;;1.60;;
16310;SDS011;8264;48.510;8.872;2022-08-21T11:51:00;4.07;;;2.10;;
16310;SDS011;8264;48.510;8.872;2022-08-21T11:53:32;3.93;;;2.00;;
16310;SDS011;8264;48.510;8.872;2022-08-21T11:56:03;4.80;;;2.17;;
16310;SDS011;8264;48.510;8.872;2022-08-21T11:58:35;3.27;;;2.03;;
16310;SDS011;8264;48.510;8.872;2022-08-21T12:01:04;3.20;;;1.80;;
16310;SDS011;8264;48.510;8.872;2022-08-21T12:03:33;2.90;;;1.80;;
16310;SDS011;8264;48.510;8.872;2022-08-21T12:06:04;4.10;;;1.83;;
16310;SDS011;8264;48.510;8.872;2022-08-21T12:08:32;2.40;;;1.60;;
16310;SDS011;8264;48.510;8.872;2022-08-21T12:11:01;3.07;;;1.87;;
16310;SDS011;8264;48.510;8.872;2022-08-21T12:13:31;3.63;;;1.77;;
16310;SDS011;8264;48.510;8.872;2022-08-21T12:16:05;2.30;;;1.57;;
16310;SDS011;8264;48.510;8.872;2022-08-21T12:18:33;3.63;;;1.60;;
16310;SDS011;8264;48.510;8.872;2022-08-21T12:21:03;2.97;;;1.60;;
16310;SDS011;8264;48.510;8.872;2022-08-21T12:23:32;3.17;;;1.80;;
16310;SDS011;8264;48.510;8.872;2022-08-21T12:26:14;3.77;;;1.77;;
16310;SDS011;8264;48.510;8.872;2022-08-21T12:28:45;2.57;;;1.70;;
16310;SDS011;8264;48.510;8.872;2022-08-21T12:31:19;2.73;;;1.67;;
16310;SDS011;8264;48.510;8.872;2022-08-21T12:33:54;4.73;;;1.67;;
16310;SDS011;8264;48.510;8.872;2022-08-21T12:36:24;4.73;;;1.87;;
16310;SDS011;8264;48.510;8.872;2022-08-21T12:38:54;2.53;;;1.63;;
16310;SDS011;8264;48.510;8.872;2022-08-21T12:41:25;2.90;;;1.90;;
16310;SDS011;8264;48.510;8.872;2022-08-21T12:43:56;5.17;;;2.00;;
16310;SDS011;8264;48.510;8.872;2022-08-21T12:46:25;4.40;;;1.73;;
16310;SDS011;8264;48.510;8.872;2022-08-21T12:48:56;3.23;;;1.67;;
16310;SDS011;8264;48.510;8.872;2022-08-21T12:51:26;2.97;;;1.77;;
16310;SDS011;8264;48.510;8.872;2022-08-21T12:53:55;3.50;;;1.77;;
16310;SDS011;8264;48.510;8.872;2022-08-21T12:56:25;3.70;;;1.60;;
16310;SDS011;8264;48.510;8.872;2022-08-21T12:58:53;2.50;;;2.00;;
16310;SDS011;8264;48.510;8.872;2022-08-21T13:01:22;3.17;;;1.70;;
16310;SDS011;8264;48.510;8.872;2022-08-21T13:03:50;3.83;;;1.60;;
16310;SDS011;8264;48.510;8.872;2022-08-21T13:06:20;2.67;;;1.57;;
16310;SDS011;8264;48.510;8.872;2022-08-21T13:08:49;3.13;;;1.80;;
16310;SDS011;8264;48.510;8.872;2022-08-21T13:11:20;3.13;;;1.80;;
16310;SDS011;8264;48.510;8.872;2022-08-21T13:13:48;4.00;;;1.77;;
16310;SDS011;8264;48.510;8.872;2022-08-21T13:16:18;3.47;;;1.60;;
16310;SDS011;8264;48.510;8.872;2022-08-21T13:18:52;2.90;;;1.93;;
16310;SDS011;8264;48.510;8.872;2022-08-21T13:21:20;3.37;;;1.90;;
16310;SDS011;8264;48.510;8.872;2022-08-21T13:23:46;3.27;;;1.90;;
16310;SDS011;8264;48.510;8.872;2022-08-21T13:26:15;4.47;;;1.93;;
16310;SDS011;8264;48.510;8.872;2022-08-21T13:28:42;4.00;;;1.60;;
16310;SDS011;8264;48.510;8.872;2022-08-21T13:31:12;2.33;;;1.40;;
16310;SDS011;8264;48.510;8.872;2022-08-21T13:33:42;2.63;;;1.63;;
16310;SDS011;8264;48.510;8.872;2022-08-21T13:36:10;3.53;;;1.60;;
16310;SDS011;8264;48.510;8.872;2022-08-21T13:38:39;4.80;;;1.87;;
16310;SDS011;8264;48.510;8.872;2022-08-21T13:41:10;2.73;;;1.60;;
16310;SDS011;8264;48.510;8.872;2022-08-21T13:43:44;2.07;;;1.53;;
16310;SDS011;8264;48.510;8.872;2022-08-21T13:46:12;3.47;;;1.70;;
16310;SDS011;8264;48.510;8.872;2022-08-21T13:48:41;2.83;;;1.50;;
16310;SDS011;8264;48.510;8.872;2022-08-21T13:51:08;2.07;;;1.60;;
16310;SDS011;8264;48.510;8.872;2022-08-21T13:53:36;1.90;;;1.70;;
16310;SDS011;8264;48.510;8.872;2022-08-21T13:56:22;2.83;;;1.60;;
16310;SDS011;8264;48.510;8.872;2022-08-21T13:58:49;2.37;;;1.73;;
16310;SDS011;8264;48.510;8.872;2022-08-21T14:01:17;3.23;;;1.67;;
16310;SDS011;8264;48.510;8.872;2022-08-21T14:03:45;3.47;;;1.80;;
16310;SDS011;8264;48.510;8.872;2022-08-21T14:06:14;1.60;;;1.50;;
16310;SDS011;8264;48.510;8.872;2022-08-21T14:08:46;2.43;;;1.63;;
16310;SDS011;8264;48.510;8.872;2022-08-21T14:11:14;1.70;;;1.57;;
16310;SDS011;8264;48.510;8.872;2022-08-21T14:13:43;3.43;;;1.50;;
16310;SDS011;8264;48.510;8.872;2022-08-21T14:16:17;3.40;;;1.60;;
16310;SDS011;8264;48.510;8.872;2022-08-21T14:19:07;2.60;;;1.60;;
16310;SDS011;8264;48.510;8.872;2022-08-21T14:21:36;2.33;;;1.80;;
16310;SDS011;8264;48.510;8.872;2022-08-21T14:24:06;2.20;;;1.60;;
16310;SDS011;8264;48.510;8.872;2022-08-21T14:26:35;2.93;;;1.70;;
16310;SDS011;8264;48.510;8.872;2022-08-21T14:29:06;4.10;;;2.07;;
16310;SDS011;8264;48.510;8.872;2022-08-21T14:31:34;1.87;;;1.60;;
16310;SDS011;8264;48.510;8.872;2022-08-21T14:34:00;2.87;;;1.80;;
16310;SDS011;8264;48.510;8.872;2022-08-21T14:36:27;2.17;;;1.60;;
16310;SDS011;8264;48.510;8.872;2022-08-21T14:38:53;3.03;;;1.83;;
16310;SDS011;8264;48.510;8.872;2022-08-21T14:41:21;2.57;;;1.70;;
16310;SDS011;8264;48.510;8.872;2022-08-21T14:43:49;3.70;;;1.70;;
16310;SDS011;8264;48.510;8.872;2022-08-21T14:46:21;3.17;;;1.53;;
16310;SDS011;8264;48.510;8.872;2022-08-21T14:48:49;2.83;;;1.70;;
16310;SDS011;8264;48.510;8.872;2022-08-21T14:51:16;4.33;;;2.00;;
16310;SDS011;8264;48.510;8.872;2022-08-21T14:53:42;2.23;;;1.67;;
16310;SDS011;8264;48.510;8.872;2022-08-21T14:56:09;2.20;;;1.60;;
16310;SDS011;8264;48.510;8.872;2022-08-21T14:58:36;3.63;;;1.57;;
16310;SDS011;8264;48.510;8.872;2022-08-21T15:01:04;2.83;;;1.87;;
16310;SDS011;8264;48.510;8.872;2022-08-21T15:03:34;2.53;;;1.90;;
16310;SDS011;8264;48.510;8.872;2022-08-21T15:06:00;2.87;;;1.70;;
16310;SDS011;8264;48.510;8.872;2022-08-21T15:08:28;2.90;;;1.60;;
16310;SDS011;8264;48.510;8.872;2022-08-21T15:10:54;3.37;;;1.70;;